createdAt,value
2023-03-11T00:00:01.952Z,95628.53
2023-03-11T00:02:28.453Z,95596.69
2023-03-11T00:04:54.957Z,95604.47
2023-03-11T00:07:21.442Z,95610.91
2023-03-11T00:09:47.899Z,95621.63
2023-03-11T00:12:14.368Z,95634.34
2023-03-11T00:14:40.835Z,95619.06
2023-03-11T00:17:07.319Z,95615.63
2023-03-11T00:19:33.763Z,95608.59
2023-03-11T00:22:00.202Z,95608.75
2023-03-11T00:24:26.649Z,95616.38
2023-03-11T00:26:53.157Z,95623.22
2023-03-11T00:29:19.613Z,95619.63
2023-03-11T00:31:46.072Z,95619.22
2023-03-11T00:34:12.511Z,95620.31
2023-03-11T00:36:38.966Z,95625.28
2023-03-11T00:39:05.426Z,95622.47
2023-03-11T00:41:31.876Z,95638.97
2023-03-11T00:43:58.335Z,95634.34
2023-03-11T00:46:24.834Z,95628.63
2023-03-11T00:48:51.310Z,95632.81
2023-03-11T00:51:17.765Z,95625.56
2023-03-11T00:53:44.203Z,95625.44
2023-03-11T00:56:10.661Z,95625.16
2023-03-11T00:58:37.150Z,95630.53
2023-03-11T01:01:03.626Z,95633.75
2023-03-11T01:03:30.085Z,95642.13
2023-03-11T01:05:56.545Z,95648.56
2023-03-11T01:08:23.001Z,95644.31
2023-03-11T01:10:49.439Z,95639.00
2023-03-11T01:13:16.086Z,95624.75
2023-03-11T01:15:42.580Z,95618.00
2023-03-11T01:18:09.060Z,95619.25
2023-03-11T01:20:35.515Z,95634.91
2023-03-11T01:23:01.973Z,95621.69
2023-03-11T01:25:28.418Z,95605.00
2023-03-11T01:27:54.901Z,95600.41
2023-03-11T01:30:21.388Z,95587.88
2023-03-11T01:32:47.903Z,95574.28
2023-03-11T01:35:14.355Z,95561.56
2023-03-11T01:37:40.806Z,95556.91
2023-03-11T01:40:07.254Z,95550.06
2023-03-11T01:42:33.708Z,95543.09
2023-03-11T01:45:00.161Z,95537.78
2023-03-11T01:47:26.655Z,95537.91
2023-03-11T01:49:53.130Z,95528.69
2023-03-11T01:52:19.588Z,95518.56
2023-03-11T01:54:46.037Z,95496.22
2023-03-11T01:57:12.509Z,95509.03
2023-03-11T01:59:38.970Z,95505.97
2023-03-11T02:02:05.482Z,95494.03
2023-03-11T02:04:32.046Z,95492.31
2023-03-11T02:06:58.515Z,95501.19
2023-03-11T02:09:24.979Z,95503.72
2023-03-11T02:11:51.414Z,95493.16
2023-03-11T02:14:17.849Z,95485.97
2023-03-11T02:16:44.294Z,95477.50
2023-03-11T02:19:10.754Z,95484.81
2023-03-11T02:21:37.218Z,95477.22
2023-03-11T02:24:03.696Z,95474.50
2023-03-11T02:26:30.265Z,95476.13
2023-03-11T02:28:56.722Z,95478.28
2023-03-11T02:31:23.207Z,95470.38
2023-03-11T02:33:49.693Z,95474.22
2023-03-11T02:36:16.147Z,95478.66
2023-03-11T02:38:42.613Z,95485.47
2023-03-11T02:41:09.063Z,95477.16
2023-03-11T02:43:35.555Z,95486.28
2023-03-11T02:46:02.021Z,95485.59
2023-03-11T02:48:28.482Z,95477.78
2023-03-11T02:50:54.953Z,95472.78
2023-03-11T02:53:21.391Z,95464.66
2023-03-11T02:55:47.853Z,95462.09
2023-03-11T02:58:14.328Z,95463.38
2023-03-11T03:00:40.894Z,95464.94
2023-03-11T03:03:07.366Z,95466.72
2023-03-11T03:05:33.827Z,95457.06
2023-03-11T03:08:00.282Z,95457.56
2023-03-11T03:10:26.746Z,95438.59
2023-03-11T03:12:53.209Z,95437.41
2023-03-11T03:15:19.683Z,95443.97
2023-03-11T03:17:46.186Z,95433.91
2023-03-11T03:20:12.719Z,95430.16
2023-03-11T03:22:39.183Z,95426.81
2023-03-11T03:25:05.655Z,95416.63
2023-03-11T03:27:32.127Z,95417.28
2023-03-11T03:29:58.564Z,95419.34
2023-03-11T03:32:25.026Z,95417.00
2023-03-11T03:34:51.467Z,95417.72
2023-03-11T03:37:17.952Z,95418.84
2023-03-11T03:39:44.401Z,95422.28
2023-03-11T03:42:11.015Z,95440.50
2023-03-11T03:44:37.568Z,95433.69
2023-03-11T03:47:04.039Z,95446.25
2023-03-11T03:49:30.474Z,95434.91
2023-03-11T03:51:56.930Z,95448.38
2023-03-11T03:54:23.359Z,95434.34
2023-03-11T03:56:49.812Z,95423.97
2023-03-11T03:59:16.239Z,95414.66
2023-03-11T04:01:42.691Z,95383.59
2023-03-11T04:04:09.137Z,95399.97
2023-03-11T04:06:35.597Z,95395.44
2023-03-11T04:09:02.072Z,95414.13
2023-03-11T04:11:28.519Z,95420.06
2023-03-11T04:13:54.971Z,95431.44
2023-03-11T04:16:21.501Z,95458.22
2023-03-11T04:18:48.022Z,95436.00
2023-03-11T04:21:14.488Z,95403.38
2023-03-11T04:23:40.973Z,95410.63
2023-03-11T04:26:07.443Z,95400.28
2023-03-11T04:28:33.908Z,95376.00
2023-03-11T04:31:00.439Z,95366.91
2023-03-11T04:33:26.900Z,95380.97
2023-03-11T04:35:53.360Z,95415.13
2023-03-11T04:38:19.819Z,95420.41
2023-03-11T04:40:46.266Z,95409.81
2023-03-11T04:43:12.723Z,95390.78
2023-03-11T04:45:39.249Z,95403.38
2023-03-11T04:48:05.705Z,95437.91
2023-03-11T04:50:32.156Z,95453.78
2023-03-11T04:52:58.608Z,95452.91
2023-03-11T04:55:25.078Z,95442.75
2023-03-11T04:57:51.507Z,95431.69
2023-03-11T05:00:17.942Z,95431.16
2023-03-11T05:02:44.403Z,95437.25
2023-03-11T05:05:10.875Z,95411.38
2023-03-11T05:07:37.321Z,95428.72
2023-03-11T05:10:03.828Z,95428.91
2023-03-11T05:12:30.273Z,95429.16
2023-03-11T05:14:56.758Z,95426.91
2023-03-11T05:17:23.202Z,95419.72
2023-03-11T05:19:49.654Z,95422.69
2023-03-11T05:22:16.102Z,95443.00
2023-03-11T05:24:42.557Z,95436.75
2023-03-11T05:27:08.996Z,95428.84
2023-03-11T05:29:35.453Z,95428.13
2023-03-11T05:32:01.911Z,95427.38
2023-03-11T05:34:28.397Z,95439.56
2023-03-11T05:36:54.834Z,95445.16
2023-03-11T05:39:21.308Z,95445.16
2023-03-11T05:41:47.758Z,95454.09
2023-03-11T05:44:14.206Z,95454.69
2023-03-11T05:46:40.697Z,95455.44
2023-03-11T05:49:07.175Z,95461.34
2023-03-11T05:51:33.653Z,95463.19
2023-03-11T05:54:00.131Z,95458.53
2023-03-11T05:56:26.589Z,95460.28
2023-03-11T05:58:53.024Z,95445.97
2023-03-11T06:01:19.487Z,95436.47
2023-03-11T06:03:45.998Z,95433.94
2023-03-11T06:06:12.566Z,95438.78
2023-03-11T06:08:39.025Z,95435.53
2023-03-11T06:11:05.472Z,95439.31
2023-03-11T06:13:31.913Z,95443.38
2023-03-11T06:15:58.381Z,95455.69
2023-03-11T06:18:24.848Z,95445.97
2023-03-11T06:20:51.287Z,95436.09
2023-03-11T06:23:17.729Z,95444.81
2023-03-11T06:25:44.183Z,95449.81
2023-03-11T06:28:10.630Z,95454.38
2023-03-11T06:30:37.062Z,95470.09
2023-03-11T06:33:03.574Z,95475.97
2023-03-11T06:35:30.022Z,95469.44
2023-03-11T06:37:56.452Z,95462.00
2023-03-11T06:40:22.895Z,95468.00
2023-03-11T06:42:49.336Z,95471.34
2023-03-11T06:45:15.792Z,95477.50
2023-03-11T06:47:42.237Z,95467.66
2023-03-11T06:50:08.670Z,95461.22
2023-03-11T06:52:35.115Z,95459.09
2023-03-11T06:55:01.552Z,95459.34
2023-03-11T06:57:27.996Z,95454.03
2023-03-11T06:59:54.451Z,95454.81
2023-03-11T07:02:20.883Z,95465.16
2023-03-11T07:04:47.349Z,95470.91
2023-03-11T07:07:13.799Z,95471.19
2023-03-11T07:09:40.233Z,95481.59
2023-03-11T07:12:06.913Z,95501.78
2023-03-11T07:14:33.460Z,95500.41
2023-03-11T07:16:59.964Z,95514.78
2023-03-11T07:19:26.464Z,95516.94
2023-03-11T07:21:52.922Z,95513.59
2023-03-11T07:24:19.774Z,95517.72
2023-03-11T07:26:46.295Z,95510.25
2023-03-11T07:29:12.738Z,95499.22
2023-03-11T07:31:39.242Z,95500.34
2023-03-11T07:34:05.718Z,95505.91
2023-03-11T07:36:32.210Z,95515.03
2023-03-11T07:38:58.666Z,95525.22
2023-03-11T07:41:25.120Z,95526.44
2023-03-11T07:43:51.570Z,95542.09
2023-03-11T07:46:18.086Z,95557.38
2023-03-11T07:48:44.550Z,95566.09
2023-03-11T07:51:10.999Z,95583.25
2023-03-11T07:53:37.446Z,95585.13
2023-03-11T07:56:03.895Z,95607.94
2023-03-11T07:58:30.326Z,95618.50
2023-03-11T08:00:56.773Z,95612.44
2023-03-11T08:03:23.321Z,95612.63
2023-03-11T08:05:49.808Z,95612.31
2023-03-11T08:08:16.236Z,95618.28
2023-03-11T08:10:42.681Z,95627.50
2023-03-11T08:13:09.130Z,95643.50
2023-03-11T08:15:35.602Z,95636.19
2023-03-11T08:18:02.061Z,95637.31
2023-03-11T08:20:28.591Z,95652.47
2023-03-11T08:22:58.417Z,95646.94
2023-03-11T08:25:25.028Z,95643.13
2023-03-11T08:27:51.542Z,95644.31
2023-03-11T08:30:17.982Z,95647.97
2023-03-11T08:32:44.464Z,95662.59
2023-03-11T08:35:10.920Z,95666.16
2023-03-11T08:37:37.461Z,95680.19
2023-03-11T08:40:03.938Z,95673.56
2023-03-11T08:42:30.409Z,95669.31
2023-03-11T08:44:56.845Z,95665.72
2023-03-11T08:47:23.312Z,95670.13
2023-03-11T08:49:49.747Z,95675.84
2023-03-11T08:52:16.186Z,95697.97
2023-03-11T08:54:42.610Z,95706.28
2023-03-11T08:57:09.076Z,95707.81
2023-03-11T08:59:35.525Z,95714.81
2023-03-11T09:02:01.975Z,95725.63
2023-03-11T09:04:28.459Z,95735.75
2023-03-11T09:06:54.909Z,95736.94
2023-03-11T09:09:21.358Z,95738.00
2023-03-11T09:11:47.826Z,95735.19
2023-03-11T09:14:14.285Z,95738.06
2023-03-11T09:16:40.739Z,95731.63
2023-03-11T09:19:07.231Z,95737.59
2023-03-11T09:21:33.682Z,95740.94
2023-03-11T09:24:00.146Z,95737.16
2023-03-11T09:26:26.602Z,95748.69
2023-03-11T09:28:53.050Z,95754.81
2023-03-11T09:31:19.553Z,95752.16
2023-03-11T09:33:46.031Z,95759.78
2023-03-11T09:36:12.527Z,95758.72
2023-03-11T09:38:38.981Z,95769.25
2023-03-11T09:41:05.412Z,95775.41
2023-03-11T09:43:31.851Z,95780.22
2023-03-11T09:45:58.291Z,95779.81
2023-03-11T09:48:24.736Z,95780.44
2023-03-11T09:50:51.166Z,95775.91
2023-03-11T09:53:17.613Z,95778.69
2023-03-11T09:55:44.047Z,95778.97
2023-03-11T09:58:10.502Z,95769.13
2023-03-11T10:00:36.960Z,95773.88
2023-03-11T10:03:03.458Z,95771.06
2023-03-11T10:05:29.944Z,95774.63
2023-03-11T10:07:56.370Z,95779.22
2023-03-11T10:10:22.856Z,95773.53
2023-03-11T10:12:49.302Z,95764.72
2023-03-11T10:15:15.785Z,95761.72
2023-03-11T10:17:42.216Z,95766.38
2023-03-11T10:20:08.651Z,95769.38
2023-03-11T10:22:35.095Z,95762.63
2023-03-11T10:25:01.534Z,95764.09
2023-03-11T10:27:27.994Z,95762.16
2023-03-11T10:29:54.425Z,95761.72
2023-03-11T10:32:20.930Z,95755.28
2023-03-11T10:34:47.406Z,95758.78
2023-03-11T10:37:13.847Z,95758.25
2023-03-11T10:39:40.306Z,95756.22
2023-03-11T10:42:06.786Z,95759.06
2023-03-11T10:44:33.270Z,95768.00
2023-03-11T10:46:59.793Z,95774.22
2023-03-11T10:49:26.230Z,95762.31
2023-03-11T10:51:52.678Z,95760.59
2023-03-11T10:54:19.116Z,95763.41
2023-03-11T10:56:45.571Z,95754.59
2023-03-11T10:59:12.031Z,95758.63
2023-03-11T11:01:38.490Z,95758.25
2023-03-11T11:04:05.004Z,95758.81
2023-03-11T11:06:31.502Z,95760.75
2023-03-11T11:08:57.941Z,95754.88
2023-03-11T11:11:24.378Z,95763.47
2023-03-11T11:13:50.920Z,95760.13
2023-03-11T11:16:17.401Z,95761.44
2023-03-11T11:18:43.871Z,95768.13
2023-03-11T11:21:10.314Z,95766.22
2023-03-11T11:23:36.748Z,95769.34
2023-03-11T11:26:03.198Z,95773.44
2023-03-11T11:28:29.647Z,95769.34
2023-03-11T11:30:56.125Z,95766.91
2023-03-11T11:33:22.640Z,95767.94
2023-03-11T11:35:49.162Z,95761.84
2023-03-11T11:38:15.607Z,95754.22
2023-03-11T11:40:42.062Z,95757.19
2023-03-11T11:43:08.507Z,95762.50
2023-03-11T11:45:34.949Z,95756.28
2023-03-11T11:48:01.411Z,95757.94
2023-03-11T11:50:27.865Z,95749.28
2023-03-11T11:52:54.302Z,95756.88
2023-03-11T11:55:20.747Z,95756.72
2023-03-11T11:57:47.251Z,95754.03
2023-03-11T12:00:13.754Z,95761.81
2023-03-11T12:02:40.192Z,95752.31
2023-03-11T12:05:06.739Z,95750.00
2023-03-11T12:07:33.201Z,95750.75
2023-03-11T12:10:00.792Z,95747.00
2023-03-11T12:12:31.589Z,95746.63
2023-03-11T12:14:58.030Z,95746.28
2023-03-11T12:17:24.454Z,95743.22
2023-03-11T12:19:50.910Z,95742.97
2023-03-11T12:22:17.341Z,95746.13
2023-03-11T12:24:43.769Z,95743.56
2023-03-11T12:27:10.236Z,95746.22
2023-03-11T12:29:36.704Z,95744.91
2023-03-11T12:32:03.170Z,95736.09
2023-03-11T12:34:29.617Z,95740.00
2023-03-11T12:36:56.069Z,95744.25
2023-03-11T12:39:22.513Z,95739.81
2023-03-11T12:41:48.959Z,95739.09
2023-03-11T12:44:15.431Z,95741.25
2023-03-11T12:46:41.951Z,95736.72
2023-03-11T12:49:08.432Z,95733.59
2023-03-11T12:51:34.861Z,95739.81
2023-03-11T12:54:01.305Z,95739.38
2023-03-11T12:56:27.754Z,95742.72
2023-03-11T12:58:54.223Z,95740.91
2023-03-11T13:01:20.712Z,95740.34
2023-03-11T13:03:47.187Z,95737.84
2023-03-11T13:06:13.643Z,95729.25
2023-03-11T13:08:40.106Z,95734.88
2023-03-11T13:11:06.559Z,95734.84
2023-03-11T13:13:33.023Z,95730.84
2023-03-11T13:15:59.530Z,95731.84
2023-03-11T13:18:26.001Z,95741.75
2023-03-11T13:20:52.434Z,95734.06
2023-03-11T13:23:18.890Z,95743.97
2023-03-11T13:25:45.331Z,95737.91
2023-03-11T13:28:11.766Z,95739.38
2023-03-11T13:30:38.227Z,95737.00
2023-03-11T13:33:04.696Z,95741.59
2023-03-11T13:35:31.153Z,95740.00
2023-03-11T13:37:57.615Z,95738.94
2023-03-11T13:40:24.065Z,95739.81
2023-03-11T13:42:50.546Z,95735.59
2023-03-11T13:45:16.990Z,95735.31
2023-03-11T13:47:43.475Z,95739.84
2023-03-11T13:50:09.945Z,95739.66
2023-03-11T13:52:36.441Z,95737.41
2023-03-11T13:55:02.895Z,95742.09
2023-03-11T13:57:29.355Z,95747.03
2023-03-11T13:59:55.824Z,95745.94
2023-03-11T14:02:22.267Z,95757.53
2023-03-11T14:04:48.728Z,95751.94
2023-03-11T14:07:15.269Z,95745.75
2023-03-11T14:09:41.765Z,95758.38
2023-03-11T14:12:08.224Z,95755.09
2023-03-11T14:14:37.438Z,95761.28
2023-03-11T14:17:03.911Z,95756.41
2023-03-11T14:19:30.358Z,95760.94
2023-03-11T14:21:56.796Z,95762.78
2023-03-11T14:24:23.318Z,95754.88
2023-03-11T14:26:49.850Z,95759.84
2023-03-11T14:29:16.303Z,95759.06
2023-03-11T14:31:42.815Z,95758.44
2023-03-11T14:34:09.297Z,95758.44
2023-03-11T14:36:35.777Z,95763.84
2023-03-11T14:39:02.235Z,95758.16
2023-03-11T14:41:28.684Z,95764.50
2023-03-11T14:43:55.134Z,95764.50
2023-03-11T14:46:21.658Z,95764.22
2023-03-11T14:48:48.246Z,95764.03
2023-03-11T14:51:14.713Z,95761.88
2023-03-11T14:53:41.184Z,95766.00
2023-03-11T14:56:07.651Z,95768.41
2023-03-11T14:58:34.114Z,95774.78
2023-03-11T15:01:00.663Z,95773.59
2023-03-11T15:03:27.167Z,95774.97
2023-03-11T15:05:53.672Z,95776.75
2023-03-11T15:08:20.118Z,95770.88
2023-03-11T15:10:46.567Z,95782.31
2023-03-11T15:13:13.012Z,95771.78
2023-03-11T15:15:39.470Z,95774.66
2023-03-11T15:18:05.944Z,95773.25
2023-03-11T15:20:32.401Z,95773.19
2023-03-11T15:22:58.852Z,95775.75
2023-03-11T15:25:25.299Z,95778.78
2023-03-11T15:27:51.752Z,95777.25
2023-03-11T15:30:18.204Z,95778.00
2023-03-11T15:32:44.699Z,95787.50
2023-03-11T15:35:11.198Z,95785.25
2023-03-11T15:37:37.670Z,95786.78
2023-03-11T15:40:04.137Z,95786.38
2023-03-11T15:42:30.610Z,95794.59
2023-03-11T15:44:57.055Z,95785.19
2023-03-11T15:47:23.585Z,95788.25
2023-03-11T15:49:50.085Z,95780.66
2023-03-11T15:52:16.542Z,95789.31
2023-03-11T15:54:47.343Z,95794.25
2023-03-11T15:57:18.431Z,95796.16
2023-03-11T15:59:44.869Z,95791.47
2023-03-11T16:02:11.326Z,95800.69
2023-03-11T16:04:37.939Z,95809.06
2023-03-11T16:07:08.357Z,95811.22
2023-03-11T16:09:35.123Z,95818.13
2023-03-11T16:12:01.580Z,95822.25
2023-03-11T16:14:28.049Z,95815.00
2023-03-11T16:16:54.501Z,95814.28
2023-03-11T16:19:20.966Z,95820.63
2023-03-11T16:21:47.429Z,95817.78
2023-03-11T16:24:13.878Z,95827.47
2023-03-11T16:26:40.333Z,95837.94
2023-03-11T16:29:18.494Z,95843.69
2023-03-11T16:31:45.682Z,95839.47
2023-03-11T16:34:12.155Z,95843.69
2023-03-11T16:36:38.599Z,95846.00
2023-03-11T16:39:05.066Z,95843.69
2023-03-11T16:41:31.541Z,95839.13
2023-03-11T16:43:57.994Z,95841.34
2023-03-11T16:46:24.468Z,95837.59
2023-03-11T16:48:50.970Z,95847.78
2023-03-11T16:51:17.455Z,95844.09
2023-03-11T16:53:43.915Z,95847.44
2023-03-11T16:56:10.379Z,95856.44
2023-03-11T16:58:36.842Z,95851.69
2023-03-11T17:01:03.309Z,95855.13
2023-03-11T17:03:40.947Z,95863.44
2023-03-11T17:06:08.859Z,95869.91
2023-03-11T17:08:35.312Z,95878.50
2023-03-11T17:11:01.772Z,95873.88
2023-03-11T17:13:28.245Z,95873.19
2023-03-11T17:15:54.721Z,95872.00
2023-03-11T17:18:21.189Z,95892.63
2023-03-11T17:20:47.647Z,95887.66
2023-03-11T17:23:14.087Z,95892.44
2023-03-11T17:25:40.551Z,95886.78
2023-03-11T17:28:06.998Z,95895.25
2023-03-11T17:30:37.274Z,95895.44
2023-03-11T17:33:04.038Z,95894.00
2023-03-11T17:35:30.522Z,95901.13
2023-03-11T17:37:57.003Z,95906.56
2023-03-11T17:40:23.581Z,95910.75
2023-03-11T17:42:50.100Z,95909.16
2023-03-11T17:45:16.534Z,95924.00
2023-03-11T17:47:42.995Z,95916.28
2023-03-11T17:50:09.476Z,95920.47
2023-03-11T17:52:35.936Z,95929.97
2023-03-11T17:55:02.395Z,95925.28
2023-03-11T17:57:28.833Z,95930.75
2023-03-11T17:59:55.271Z,95933.56
2023-03-11T18:02:21.747Z,95935.28
2023-03-11T18:04:48.224Z,95933.06
2023-03-11T18:07:14.679Z,95933.13
2023-03-11T18:09:41.129Z,95935.88
2023-03-11T18:12:07.598Z,95938.53
2023-03-11T18:14:34.060Z,95947.44
2023-03-11T18:17:00.524Z,95935.38
2023-03-11T18:19:26.982Z,95946.41
2023-03-11T18:21:53.426Z,95939.81
2023-03-11T18:24:19.874Z,95942.84
2023-03-11T18:26:46.331Z,95947.09
2023-03-11T18:29:12.765Z,95946.59
2023-03-11T18:31:39.258Z,95948.16
2023-03-11T18:34:05.742Z,95944.28
2023-03-11T18:36:32.202Z,95957.38
2023-03-11T18:38:58.641Z,95955.72
2023-03-11T18:41:25.078Z,95946.06
2023-03-11T18:43:51.524Z,95950.00
2023-03-11T18:46:18.095Z,95961.66
2023-03-11T18:48:44.677Z,95961.47
2023-03-11T18:51:11.136Z,95953.09
2023-03-11T18:53:37.596Z,95954.28
2023-03-11T18:56:04.043Z,95959.94
2023-03-11T18:58:30.478Z,95959.16
2023-03-11T19:00:56.986Z,95968.56
2023-03-11T19:03:23.466Z,95974.63
2023-03-11T19:05:50.907Z,95964.72
2023-03-11T19:08:17.416Z,95974.31
2023-03-11T19:10:43.885Z,95984.84
2023-03-11T19:13:10.340Z,95983.53
2023-03-11T19:15:36.810Z,95980.66
2023-03-11T19:18:07.114Z,95983.13
2023-03-11T19:20:33.923Z,95994.59
2023-03-11T19:23:00.413Z,95997.31
2023-03-11T19:25:27.983Z,95986.38
2023-03-11T19:27:54.590Z,95992.53
2023-03-11T19:30:21.036Z,95987.75
2023-03-11T19:32:47.557Z,95989.81
2023-03-11T19:35:14.054Z,95988.69
2023-03-11T19:37:40.543Z,95997.31
2023-03-11T19:40:07.868Z,96005.00
2023-03-11T19:42:35.122Z,96007.41
2023-03-11T19:45:01.569Z,96006.13
2023-03-11T19:47:28.022Z,96004.34
2023-03-11T19:49:54.464Z,96002.63
2023-03-11T19:52:20.921Z,96006.56
2023-03-11T19:54:47.373Z,96006.47
2023-03-11T19:57:13.830Z,96002.28
2023-03-11T19:59:40.289Z,96013.31
2023-03-11T20:02:06.777Z,96013.06
2023-03-11T20:04:33.305Z,96006.03
2023-03-11T20:06:59.836Z,96009.38
2023-03-11T20:09:26.290Z,96011.78
2023-03-11T20:11:52.783Z,96010.66
2023-03-11T20:14:19.237Z,96006.91
2023-03-11T20:16:45.765Z,96015.47
2023-03-11T20:19:12.259Z,96027.00
2023-03-11T20:21:38.699Z,96034.56
2023-03-11T20:24:05.163Z,96027.34
2023-03-11T20:26:31.707Z,96030.00
2023-03-11T20:28:58.236Z,96023.75
2023-03-11T20:31:24.751Z,96031.03
2023-03-11T20:33:51.345Z,96034.38
2023-03-11T20:36:17.878Z,96039.16
2023-03-11T20:38:44.413Z,96034.22
2023-03-11T20:41:10.888Z,96052.25
2023-03-11T20:43:37.462Z,96050.72
2023-03-11T20:46:04.072Z,96055.91
2023-03-11T20:48:30.634Z,96060.44
2023-03-11T20:50:57.143Z,96057.38
2023-03-11T20:53:23.596Z,96053.97
2023-03-11T20:55:50.060Z,96056.50
2023-03-11T20:58:16.539Z,96055.31
2023-03-11T21:00:43.028Z,96051.75
2023-03-11T21:03:09.615Z,96055.91
2023-03-11T21:05:36.175Z,96061.91
2023-03-11T21:08:02.661Z,96066.13
2023-03-11T21:10:29.173Z,96077.72
2023-03-11T21:12:55.698Z,96079.53
2023-03-11T21:15:22.147Z,96082.88
2023-03-11T21:17:48.628Z,96090.25
2023-03-11T21:20:15.085Z,96082.03
2023-03-11T21:22:41.591Z,96084.31
2023-03-11T21:25:08.707Z,96091.00
2023-03-11T21:27:35.312Z,96094.34
2023-03-11T21:30:01.839Z,96088.25
2023-03-11T21:32:28.506Z,96091.16
2023-03-11T21:34:55.149Z,96091.69
2023-03-11T21:37:21.622Z,96098.63
2023-03-11T21:39:48.108Z,96098.00
2023-03-11T21:42:14.659Z,96100.22
2023-03-11T21:44:41.129Z,96109.56
2023-03-11T21:47:07.619Z,96101.97
2023-03-11T21:49:34.120Z,96110.00
2023-03-11T21:52:02.282Z,96107.94
2023-03-11T21:54:29.080Z,96111.78
2023-03-11T21:56:55.697Z,96118.72
2023-03-11T21:59:25.141Z,96120.88
2023-03-11T22:01:52.063Z,96123.94
2023-03-11T22:04:18.606Z,96127.91
2023-03-11T22:06:45.255Z,96128.66
2023-03-11T22:09:11.718Z,96129.06
2023-03-11T22:11:38.213Z,96130.53
2023-03-11T22:14:04.701Z,96122.84
2023-03-11T22:16:31.434Z,96122.91
2023-03-11T22:18:58.155Z,96126.75
2023-03-11T22:21:24.726Z,96126.16
2023-03-11T22:23:51.192Z,96132.16
2023-03-11T22:26:17.679Z,96133.59
2023-03-11T22:28:44.177Z,96139.69
2023-03-11T22:31:10.626Z,96140.91
2023-03-11T22:33:37.078Z,96147.66
2023-03-11T22:36:03.591Z,96151.41
2023-03-11T22:38:30.056Z,96156.53
2023-03-11T22:40:56.518Z,96161.84
2023-03-11T22:43:23.011Z,96170.13
2023-03-11T22:45:49.528Z,96175.19
2023-03-11T22:48:15.990Z,96158.84
2023-03-11T22:50:42.435Z,96169.72
2023-03-11T22:53:08.900Z,96160.38
2023-03-11T22:55:35.342Z,96164.34
2023-03-11T22:58:01.794Z,96165.56
2023-03-11T23:00:28.242Z,96160.72
2023-03-11T23:02:54.768Z,96174.09
2023-03-11T23:05:21.273Z,96168.19
2023-03-11T23:07:47.737Z,96157.59
2023-03-11T23:10:14.212Z,96161.16
2023-03-11T23:12:40.690Z,96153.66
2023-03-11T23:15:07.160Z,96152.09
2023-03-11T23:17:33.607Z,96149.44
2023-03-11T23:20:00.082Z,96156.03
2023-03-11T23:22:26.552Z,96156.38
2023-03-11T23:24:53.016Z,96158.16
2023-03-11T23:27:19.474Z,96168.44
2023-03-11T23:29:45.950Z,96171.28
2023-03-11T23:32:12.386Z,96164.25
2023-03-11T23:34:38.853Z,96163.88
2023-03-11T23:37:05.599Z,96164.50
2023-03-11T23:39:32.099Z,96167.25
2023-03-11T23:41:58.569Z,96170.75
2023-03-11T23:44:25.052Z,96166.78
2023-03-11T23:46:51.536Z,96170.34
2023-03-11T23:49:17.979Z,96166.75
2023-03-11T23:51:44.438Z,96174.34
2023-03-11T23:54:10.928Z,96177.66
2023-03-11T23:56:37.359Z,96182.28
2023-03-11T23:59:03.820Z,96176.75
